메인 페이지
METAR-TAF:

METAR-TAF

공항 :

크라이스트처치 국제공항

크라이스트처치, 뉴질랜드

위도: 43-29S, 경도: 172-33E, 고도: 38m

현재 날씨관측

예보는 13분 전, 03:00시(UTC)에 발표되었습니다.
남동1kt
온도 12°C
습도 54%
기압 1000 hPa
시정 10km 이상

METAR: NZCH 210300Z AUTO 14001KT 9999 NCD 12/03 Q1000 NOSIG

시각: 15:13 (03:13 UTC)

예보

예보는 2 시간 16분 전, 00:57시(UTC)에 발표되었습니다.
예보 대상 시간: 21일 00시부터 22일 00시까지 (UTC)
여러 방향의 바람 2kt
시정 10km 이상
1500m 미만 상공 구름 및 적란운 없음
전환 중
21일 05시부터 21일 07시까지 (UTC)
북동10kt
전환 중
21일 21시부터 21일 23시까지 (UTC)
북동15kt, 순간 최대 풍속 25kt

TAF: NZCH 210057Z 2100/2200 VRB02KT CAVOK BECMG 2105/2107 04010KT BECMG 2121/2123 04015G25KT

4,000개 이상의 공항 관측 자료 및 예보 (METAR 및 TAF 보고).

지도상에서 검색 가능한 기상관측소가 노란 점과 빨간 점으로 표시되어 있습니다.

기상관측소 명을 보려면 표시 위로 마우스를 이동하세요.

날씨 관측과 예보를 보려면 클릭하세요.

지도 변경 : 확대하려면 엑스 표시가 있는 녹색 버튼, 축소하려면 빼기 표시가 있는 녹색 버튼, 다음 페이지의 지도를 보려면 녹색 화살표를 클릭하세요.


METAR-TAF: